Time;durP1;ratioP1;P1;durP2;ratioP2;P2;SDS_P1;SDS_P2;PMS_P1;PMS_P2;Temp;Humidity;BMP_temperature;BMP_pressure;BME280_temperature;BME280_humidity;BME280_pressure;Samples;Min_cycle;Max_cycle;Signal;HPM_P1;HPM_P2
2022/09/23 00:03:57;;;;;;;16.10;3.60;;;;;;;;;;6187289;23;20389;-92
2022/09/23 00:06:24;;;;;;;11.73;2.80;;;;;;;;;;6161321;23;20408;-93
2022/09/23 00:09:17;;;;;;;11.83;3.50;;;;;;;;;;6185814;23;20444;-92
2022/09/23 00:11:45;;;;;;;18.70;3.80;;;;;;;;;;6186258;23;20420;-94
2022/09/23 00:14:20;;;;;;;11.40;3.60;;;;;;;;;;6161477;23;20417;-92
2022/09/23 00:16:52;;;;;;;8.47;3.43;;;;;;;;;;6161387;23;20898;-92
2022/09/23 00:19:30;;;;;;;16.10;3.93;;;;;;;;;;6185712;23;20388;-92
2022/09/23 00:22:03;;;;;;;11.20;4.03;;;;;;;;;;6160986;23;20408;-92
2022/09/23 00:24:39;;;;;;;12.90;3.47;;;;;;;;;;6161954;23;20396;-92
2022/09/23 00:30:05;;;;;;;11.50;3.70;;;;;;;;;;6187327;23;20385;-93
2022/09/23 00:32:41;;;;;;;9.80;3.30;;;;;;;;;;6186230;23;20871;-92
2022/09/23 00:35:14;;;;;;;15.40;3.87;;;;;;;;;;6185627;23;20973;-93
2022/09/23 00:37:42;;;;;;;15.53;3.83;;;;;;;;;;6161381;23;20416;-93
2022/09/23 00:40:11;;;;;;;14.27;4.30;;;;;;;;;;6161910;23;20392;-94
2022/09/23 00:43:04;;;;;;;11.53;3.10;;;;;;;;;;6185009;23;20514;-93
2022/09/23 00:45:33;;;;;;;6.47;2.60;;;;;;;;;;6217196;23;20388;-94
2022/09/23 00:48:04;;;;;;;11.00;3.27;;;;;;;;;;6190893;23;20436;-94
2022/09/23 00:50:39;;;;;;;14.57;3.70;;;;;;;;;;6215811;23;20384;-93
2022/09/23 00:53:27;;;;;;;17.53;3.43;;;;;;;;;;6191423;23;20407;-93
2022/09/23 00:55:58;;;;;;;10.43;3.10;;;;;;;;;;6216672;23;20412;-93
2022/09/23 01:01:48;;;;;;;15.90;3.37;;;;;;;;;;6217732;23;20502;-92
2022/09/23 01:04:16;;;;;;;13.03;3.50;;;;;;;;;;6192153;23;20400;-94
2022/09/23 01:06:43;;;;;;;16.50;3.60;;;;;;;;;;6215754;23;20408;-93
2022/09/23 01:09:13;;;;;;;21.30;4.13;;;;;;;;;;6191012;23;21004;-92
2022/09/23 01:11:52;;;;;;;17.23;3.50;;;;;;;;;;6215680;23;20407;-93
2022/09/23 01:14:39;;;;;;;14.27;4.27;;;;;;;;;;6216107;23;20485;-93
2022/09/23 01:17:18;;;;;;;16.07;4.57;;;;;;;;;;6217163;23;20422;-92
2022/09/23 01:20:02;;;;;;;17.87;3.80;;;;;;;;;;6215690;23;20777;-92
2022/09/23 01:26:10;;;;;;;18.00;4.60;;;;;;;;;;6217433;23;20391;-94
2022/09/23 01:28:41;;;;;;;17.30;4.00;;;;;;;;;;6215356;23;20999;-92
2022/09/23 01:31:30;;;;;;;15.60;4.00;;;;;;;;;;6216980;23;20412;-93
2022/09/23 01:34:29;;;;;;;11.67;3.60;;;;;;;;;;6215825;23;20434;-92
2022/09/23 01:36:59;;;;;;;13.77;3.70;;;;;;;;;;6215699;23;20403;-92
2022/09/23 01:39:34;;;;;;;14.37;3.93;;;;;;;;;;6191066;23;20411;-93
2022/09/23 01:42:10;;;;;;;16.60;4.23;;;;;;;;;;6190544;23;20893;-93
2022/09/23 01:44:56;;;;;;;21.23;4.00;;;;;;;;;;6215146;23;20428;-91
2022/09/23 01:47:42;;;;;;;15.20;3.93;;;;;;;;;;6215094;23;20699;-90
2022/09/23 01:59:34;;;;;;;19.83;4.30;;;;;;;;;;6217654;23;20363;-90
2022/09/23 02:05:21;;;;;;;17.07;3.80;;;;;;;;;;6218548;23;20413;-91
2022/09/23 02:08:16;;;;;;;15.47;3.20;;;;;;;;;;6215373;23;20431;-91
2022/09/23 02:10:55;;;;;;;12.97;4.03;;;;;;;;;;6215144;23;20863;-91
2022/09/23 02:13:27;;;;;;;20.73;4.33;;;;;;;;;;6216777;23;20407;-91
2022/09/23 02:16:07;;;;;;;17.00;3.67;;;;;;;;;;6191024;23;20781;-91
2022/09/23 02:18:40;;;;;;;12.43;3.50;;;;;;;;;;6214635;23;20435;-91
2022/09/23 02:21:17;;;;;;;12.70;3.43;;;;;;;;;;6191194;23;20442;-90
2022/09/23 02:30:25;;;;;;;16.40;3.90;;;;;;;;;;6216514;23;20761;-91
2022/09/23 02:33:05;;;;;;;21.63;3.93;;;;;;;;;;6216766;23;20396;-91
2022/09/23 02:35:52;;;;;;;17.00;4.03;;;;;;;;;;6218242;23;20383;-91
2022/09/23 02:38:37;;;;;;;19.63;3.60;;;;;;;;;;6216719;23;20418;-91
2022/09/23 02:44:27;;;;;;;15.30;3.60;;;;;;;;;;6209489;23;20943;-91
2022/09/23 02:50:16;;;;;;;16.90;3.53;;;;;;;;;;6219268;23;20371;-90
2022/09/23 02:52:45;;;;;;;15.67;3.40;;;;;;;;;;6217278;23;20477;-90
2022/09/23 02:55:14;;;;;;;16.47;4.60;;;;;;;;;;6191022;23;20901;-90
2022/09/23 02:57:41;;;;;;;15.70;4.07;;;;;;;;;;6192527;23;20395;-91
2022/09/23 03:00:09;;;;;;;17.57;4.13;;;;;;;;;;6191905;23;20400;-91
2022/09/23 03:05:47;;;;;;;17.13;3.97;;;;;;;;;;6218561;23;20783;-91
2022/09/23 03:08:29;;;;;;;14.63;3.60;;;;;;;;;;6191688;23;20439;-89
2022/09/23 03:11:04;;;;;;;18.37;4.47;;;;;;;;;;6192258;23;20854;-91
2022/09/23 03:16:57;;;;;;;15.50;4.60;;;;;;;;;;6218575;23;20388;-89
2022/09/23 03:25:56;;;;;;;21.50;4.03;;;;;;;;;;6217679;23;20912;-89
2022/09/23 03:28:30;;;;;;;25.80;5.50;;;;;;;;;;6192064;23;20424;-91
2022/09/23 03:34:05;;;;;;;15.27;4.50;;;;;;;;;;6217519;23;20383;-90
2022/09/23 03:36:50;;;;;;;23.43;4.40;;;;;;;;;;6216268;23;20396;-90
2022/09/23 03:42:39;;;;;;;26.23;5.27;;;;;;;;;;6218104;23;20383;-91
2022/09/23 03:48:41;;;;;;;14.60;4.20;;;;;;;;;;6217905;23;20928;-90
2022/09/23 03:54:31;;;;;;;22.23;4.17;;;;;;;;;;6217915;23;20403;-89
2022/09/23 04:00:01;;;;;;;31.27;5.40;;;;;;;;;;6218163;23;20410;-90
2022/09/23 04:02:36;;;;;;;26.03;4.60;;;;;;;;;;6192023;23;20392;-89
2022/09/23 04:05:24;;;;;;;20.07;4.60;;;;;;;;;;6191106;23;20465;-90
2022/09/23 04:08:00;;;;;;;17.07;4.27;;;;;;;;;;6216454;23;20446;-90
2022/09/23 04:10:39;;;;;;;19.27;4.43;;;;;;;;;;6191518;23;20879;-88
2022/09/23 04:13:08;;;;;;;20.53;4.40;;;;;;;;;;6191176;23;20454;-89
2022/09/23 04:15:58;;;;;;;15.73;4.10;;;;;;;;;;6191495;23;20387;-90
2022/09/23 04:18:36;;;;;;;20.10;4.43;;;;;;;;;;6216295;23;20459;-90
2022/09/23 04:21:19;;;;;;;26.50;4.10;;;;;;;;;;6216061;23;20421;-90
2022/09/23 04:23:55;;;;;;;16.77;4.00;;;;;;;;;;6215547;23;20388;-90
2022/09/23 04:26:32;;;;;;;11.50;3.10;;;;;;;;;;6215721;23;20407;-90
2022/09/23 04:28:59;;;;;;;23.40;4.60;;;;;;;;;;6191114;23;20470;-90
2022/09/23 04:31:42;;;;;;;22.70;4.60;;;;;;;;;;6190741;23;20408;-90
2022/09/23 04:34:35;;;;;;;14.50;3.73;;;;;;;;;;6191272;23;20418;-90
2022/09/23 04:37:03;;;;;;;14.60;4.17;;;;;;;;;;6215784;23;20431;-90
2022/09/23 04:39:36;;;;;;;15.93;3.20;;;;;;;;;;6190838;23;20380;-91
2022/09/23 04:42:10;;;;;;;15.60;4.00;;;;;;;;;;6215684;23;20399;-90
2022/09/23 04:44:38;;;;;;;20.07;3.97;;;;;;;;;;6215258;23;20431;-90
2022/09/23 04:47:05;;;;;;;22.63;3.80;;;;;;;;;;6215702;23;20407;-90
2022/09/23 04:49:48;;;;;;;20.67;3.93;;;;;;;;;;6191346;23;20486;-90
2022/09/23 04:52:23;;;;;;;15.80;3.60;;;;;;;;;;6215458;23;20414;-90
2022/09/23 04:54:52;;;;;;;17.07;3.97;;;;;;;;;;6190407;23;20458;-89
2022/09/23 04:57:44;;;;;;;15.40;3.03;;;;;;;;;;6190383;23;20476;-91
2022/09/23 05:00:28;;;;;;;18.80;3.40;;;;;;;;;;6216692;23;20462;-90
2022/09/23 05:03:17;;;;;;;12.87;3.50;;;;;;;;;;6191488;23;20859;-90
2022/09/23 05:05:54;;;;;;;13.07;3.50;;;;;;;;;;6214824;23;20414;-89
2022/09/23 05:08:30;;;;;;;17.70;3.00;;;;;;;;;;6215491;23;20391;-90
2022/09/23 05:11:13;;;;;;;11.50;3.27;;;;;;;;;;6190618;23;20408;-90
2022/09/23 05:13:59;;;;;;;21.90;3.23;;;;;;;;;;6215104;23;20951;-89
2022/09/23 05:16:36;;;;;;;22.40;2.90;;;;;;;;;;6217006;23;20408;-89
2022/09/23 05:19:16;;;;;;;21.73;4.23;;;;;;;;;;6216716;23;20744;-92
2022/09/23 05:21:53;;;;;;;13.90;3.50;;;;;;;;;;6191895;23;20483;-90
2022/09/23 05:24:27;;;;;;;14.27;3.40;;;;;;;;;;6216033;23;20391;-91
2022/09/23 05:30:06;;;;;;;25.20;4.40;;;;;;;;;;6216403;23;20496;-91
2022/09/23 05:32:40;;;;;;;16.97;3.97;;;;;;;;;;6215271;23;20889;-91
2022/09/23 05:35:22;;;;;;;17.97;3.97;;;;;;;;;;6215999;23;20385;-90
2022/09/23 05:37:54;;;;;;;16.67;3.43;;;;;;;;;;6215548;23;20388;-91
2022/09/23 05:40:28;;;;;;;18.77;3.00;;;;;;;;;;6215402;23;20415;-91
2022/09/23 05:43:04;;;;;;;12.27;3.37;;;;;;;;;;6190367;23;20441;-90
2022/09/23 05:45:40;;;;;;;17.40;3.97;;;;;;;;;;6190045;23;20431;-89
2022/09/23 05:48:14;;;;;;;15.20;3.60;;;;;;;;;;6190198;23;20486;-90
2022/09/23 05:50:55;;;;;;;14.93;2.93;;;;;;;;;;6190609;23;20779;-91
2022/09/23 05:53:24;;;;;;;25.07;3.90;;;;;;;;;;6215036;23;20453;-90
2022/09/23 05:56:03;;;;;;;12.87;3.07;;;;;;;;;;6190845;23;20395;-90
2022/09/23 05:58:34;;;;;;;13.57;3.47;;;;;;;;;;6215707;23;20383;-91
2022/09/23 06:01:13;;;;;;;14.13;4.10;;;;;;;;;;6190729;23;20416;-90
2022/09/23 06:03:51;;;;;;;12.80;2.80;;;;;;;;;;6195821;23;20462;-89
2022/09/23 06:06:19;;;;;;;15.27;4.03;;;;;;;;;;6217796;23;20979;-89
2022/09/23 06:08:47;;;;;;;19.63;3.77;;;;;;;;;;6191845;23;20439;-90
2022/09/23 06:11:29;;;;;;;17.80;4.60;;;;;;;;;;6192151;23;20407;-89
2022/09/23 06:14:01;;;;;;;18.80;2.83;;;;;;;;;;6217680;23;20414;-91
2022/09/23 06:16:29;;;;;;;22.83;3.30;;;;;;;;;;6192745;23;20430;-91
2022/09/23 06:18:59;;;;;;;18.07;3.10;;;;;;;;;;6191785;23;20417;-90
2022/09/23 06:21:58;;;;;;;14.27;3.30;;;;;;;;;;6194599;23;20387;-90
2022/09/23 06:24:33;;;;;;;20.10;3.30;;;;;;;;;;6218569;23;20411;-91
2022/09/23 06:27:18;;;;;;;17.57;3.70;;;;;;;;;;6218117;23;20407;-90
2022/09/23 06:29:46;;;;;;;20.03;3.97;;;;;;;;;;6191517;23;20786;-91
2022/09/23 06:32:17;;;;;;;13.53;3.50;;;;;;;;;;6192664;23;20407;-91
2022/09/23 06:34:50;;;;;;;13.50;3.57;;;;;;;;;;6217503;23;20391;-91
2022/09/23 06:37:19;;;;;;;17.20;3.57;;;;;;;;;;6192791;23;20495;-90
2022/09/23 06:39:47;;;;;;;8.67;3.07;;;;;;;;;;6192559;23;20755;-91
2022/09/23 06:42:16;;;;;;;15.53;2.97;;;;;;;;;;6191901;23;20453;-87
2022/09/23 06:44:45;;;;;;;17.63;2.87;;;;;;;;;;6190834;23;20786;-88
2022/09/23 06:47:13;;;;;;;17.90;3.17;;;;;;;;;;6215923;23;20740;-87
2022/09/23 06:49:40;;;;;;;18.73;3.87;;;;;;;;;;6190710;23;20435;-87
2022/09/23 06:52:08;;;;;;;26.10;4.13;;;;;;;;;;6191024;23;20407;-89
2022/09/23 06:54:36;;;;;;;20.43;3.70;;;;;;;;;;6190780;23;20408;-88
2022/09/23 06:57:04;;;;;;;24.57;4.43;;;;;;;;;;6215056;23;20399;-87
2022/09/23 06:59:32;;;;;;;25.13;4.00;;;;;;;;;;6190319;23;20404;-88
2022/09/23 07:01:59;;;;;;;17.43;3.73;;;;;;;;;;6215337;23;20392;-88
2022/09/23 07:04:27;;;;;;;18.47;4.37;;;;;;;;;;6190545;23;20411;-88
2022/09/23 07:06:55;;;;;;;20.80;3.20;;;;;;;;;;6191320;23;20461;-88
2022/09/23 07:09:22;;;;;;;14.83;3.20;;;;;;;;;;6191337;23;20458;-87
2022/09/23 07:11:49;;;;;;;16.17;2.93;;;;;;;;;;6216332;23;20432;-88
2022/09/23 07:14:17;;;;;;;17.87;2.70;;;;;;;;;;6190714;23;20404;-88
2022/09/23 07:16:44;;;;;;;16.40;3.30;;;;;;;;;;6215970;23;20890;-88
2022/09/23 07:19:11;;;;;;;21.97;3.37;;;;;;;;;;6189606;23;20498;-87
2022/09/23 07:21:40;;;;;;;16.17;3.30;;;;;;;;;;6215976;23;20404;-88
2022/09/23 07:24:07;;;;;;;14.50;2.97;;;;;;;;;;6215081;23;20414;-88
2022/09/23 07:26:35;;;;;;;17.30;3.27;;;;;;;;;;6217291;23;20476;-89
2022/09/23 07:29:06;;;;;;;13.63;3.13;;;;;;;;;;6215794;23;20442;-89
2022/09/23 07:31:35;;;;;;;11.80;3.30;;;;;;;;;;6190525;23;20395;-86
2022/09/23 07:34:10;;;;;;;12.67;2.90;;;;;;;;;;6214968;23;20425;-88
2022/09/23 07:36:39;;;;;;;19.33;3.40;;;;;;;;;;6215093;23;20918;-88
2022/09/23 07:39:07;;;;;;;18.50;3.77;;;;;;;;;;6190627;23;20777;-90
2022/09/23 07:41:35;;;;;;;20.50;3.53;;;;;;;;;;6216023;23;20487;-90
2022/09/23 07:44:02;;;;;;;10.37;2.90;;;;;;;;;;6190373;23;20439;-91
2022/09/23 07:46:32;;;;;;;14.53;3.10;;;;;;;;;;6191587;23;20415;-92
2022/09/23 07:49:02;;;;;;;16.73;3.40;;;;;;;;;;6191901;23;20383;-91
2022/09/23 07:51:32;;;;;;;12.50;3.83;;;;;;;;;;6191287;23;20406;-92
2022/09/23 07:54:07;;;;;;;24.00;3.87;;;;;;;;;;6190564;23;20399;-91
2022/09/23 07:56:42;;;;;;;15.93;3.30;;;;;;;;;;6215042;23;20439;-92
2022/09/23 07:59:17;;;;;;;16.90;3.10;;;;;;;;;;6191663;23;20495;-91
2022/09/23 08:02:09;;;;;;;17.83;3.40;;;;;;;;;;6190727;23;20466;-91
2022/09/23 08:04:36;;;;;;;16.93;3.20;;;;;;;;;;6213852;23;20449;-91
2022/09/23 08:07:06;;;;;;;16.87;3.27;;;;;;;;;;6215982;23;20416;-91
2022/09/23 08:09:40;;;;;;;18.10;3.47;;;;;;;;;;6215548;23;20454;-91
2022/09/23 08:12:08;;;;;;;23.03;3.83;;;;;;;;;;6190431;23;20407;-91
2022/09/23 08:14:42;;;;;;;14.33;3.90;;;;;;;;;;6192586;23;20463;-92
2022/09/23 08:17:13;;;;;;;23.80;3.60;;;;;;;;;;6191215;23;20392;-91
2022/09/23 08:19:41;;;;;;;12.80;2.83;;;;;;;;;;6190576;23;20446;-91
2022/09/23 08:22:11;;;;;;;11.30;3.00;;;;;;;;;;6190544;23;20503;-92
2022/09/23 08:24:41;;;;;;;14.70;3.33;;;;;;;;;;6190533;23;20407;-91
2022/09/23 08:27:10;;;;;;;16.10;3.23;;;;;;;;;;6189953;23;20443;-91
2022/09/23 08:29:37;;;;;;;12.30;2.37;;;;;;;;;;6190049;23;20439;-91
2022/09/23 08:32:06;;;;;;;15.97;2.80;;;;;;;;;;6190632;23;20408;-91
2022/09/23 08:34:34;;;;;;;13.47;3.07;;;;;;;;;;6215061;23;20890;-91
2022/09/23 08:37:03;;;;;;;17.00;3.03;;;;;;;;;;6190815;23;20458;-92
2022/09/23 08:39:31;;;;;;;15.00;4.07;;;;;;;;;;6216165;23;20461;-91
2022/09/23 08:42:05;;;;;;;17.70;3.30;;;;;;;;;;6191584;23;20415;-91
2022/09/23 08:44:41;;;;;;;14.67;3.63;;;;;;;;;;6188619;23;20435;-92
2022/09/23 08:47:30;;;;;;;12.23;3.10;;;;;;;;;;6215096;23;20478;-91
2022/09/23 08:50:17;;;;;;;15.17;3.00;;;;;;;;;;6200075;23;20439;-92
2022/09/23 08:52:55;;;;;;;17.87;2.70;;;;;;;;;;6215288;23;20777;-92
2022/09/23 08:55:29;;;;;;;11.90;3.37;;;;;;;;;;6190204;23;20407;-91
2022/09/23 08:58:18;;;;;;;9.20;2.90;;;;;;;;;;6190692;23;20415;-92
2022/09/23 09:00:59;;;;;;;10.40;2.47;;;;;;;;;;6215501;23;20384;-91
2022/09/23 09:03:30;;;;;;;15.93;4.00;;;;;;;;;;6215601;23;20395;-91
2022/09/23 09:05:58;;;;;;;12.60;3.10;;;;;;;;;;6215854;23;20741;-91
2022/09/23 09:08:30;;;;;;;15.07;3.00;;;;;;;;;;6190145;23;20396;-91
2022/09/23 09:11:01;;;;;;;14.17;3.33;;;;;;;;;;6190013;23;20443;-91
2022/09/23 09:13:32;;;;;;;12.50;2.80;;;;;;;;;;6214122;23;20543;-91
2022/09/23 09:15:59;;;;;;;8.23;2.10;;;;;;;;;;6215128;23;20706;-91
2022/09/23 09:18:26;;;;;;;18.63;3.70;;;;;;;;;;6214314;23;20407;-91
2022/09/23 09:20:56;;;;;;;12.93;3.27;;;;;;;;;;6190103;23;20411;-93
2022/09/23 09:23:46;;;;;;;14.57;3.97;;;;;;;;;;6190712;23;20407;-89
2022/09/23 09:26:41;;;;;;;12.13;2.77;;;;;;;;;;6215898;23;20400;-93
2022/09/23 09:29:16;;;;;;;16.10;3.07;;;;;;;;;;6211560;23;20982;-91
2022/09/23 09:32:27;;;;;;;18.67;2.77;;;;;;;;;;6194721;23;20403;-91
2022/09/23 09:34:56;;;;;;;15.40;3.27;;;;;;;;;;6214575;23;20399;-91
2022/09/23 09:37:32;;;;;;;18.47;3.27;;;;;;;;;;6190452;23;20714;-91
2022/09/23 09:40:00;;;;;;;13.00;3.80;;;;;;;;;;6221795;23;20403;-91
2022/09/23 09:42:39;;;;;;;11.70;3.00;;;;;;;;;;6217644;23;20407;-89
2022/09/23 09:45:06;;;;;;;22.27;3.67;;;;;;;;;;6214254;23;20427;-89
2022/09/23 09:47:46;;;;;;;8.87;3.10;;;;;;;;;;6215990;23;20739;-91
2022/09/23 09:50:19;;;;;;;17.67;2.70;;;;;;;;;;6189307;23;20518;-90
2022/09/23 09:52:55;;;;;;;11.00;3.10;;;;;;;;;;6191024;23;20458;-90
2022/09/23 09:55:30;;;;;;;11.27;2.80;;;;;;;;;;6190892;23;20412;-92
2022/09/23 09:58:04;;;;;;;11.90;3.20;;;;;;;;;;6191181;23;20407;-88
2022/09/23 10:00:51;;;;;;;15.83;3.33;;;;;;;;;;6190526;23;20491;-93
2022/09/23 10:03:26;;;;;;;8.10;2.57;;;;;;;;;;6216390;23;20394;-92
2022/09/23 10:06:16;;;;;;;12.63;2.77;;;;;;;;;;6214705;23;20466;-92
2022/09/23 10:09:03;;;;;;;10.90;2.90;;;;;;;;;;6173378;23;20443;-89
2022/09/23 10:11:31;;;;;;;12.43;3.50;;;;;;;;;;6215016;23;20494;-90
2022/09/23 10:14:01;;;;;;;11.17;2.77;;;;;;;;;;6189278;23;20434;-90
2022/09/23 10:16:36;;;;;;;12.30;3.90;;;;;;;;;;6214392;23;20387;-91
2022/09/23 10:19:16;;;;;;;11.40;3.50;;;;;;;;;;6214931;23;20723;-90
2022/09/23 10:21:43;;;;;;;11.07;2.90;;;;;;;;;;6189704;23;20422;-91
2022/09/23 10:24:17;;;;;;;19.00;3.47;;;;;;;;;;6190122;23;20439;-90
2022/09/23 10:26:50;;;;;;;11.93;3.50;;;;;;;;;;6189261;23;20415;-91
2022/09/23 10:29:39;;;;;;;15.37;3.57;;;;;;;;;;6190370;23;20414;-90
2022/09/23 10:32:26;;;;;;;21.43;4.00;;;;;;;;;;6189509;23;20413;-90
2022/09/23 10:34:55;;;;;;;8.20;3.17;;;;;;;;;;6214617;23;20396;-90
2022/09/23 10:37:29;;;;;;;10.07;3.13;;;;;;;;;;6189829;23;20412;-90
2022/09/23 10:48:50;;;;;;;14.17;4.07;;;;;;;;;;6215231;23;20396;-90
2022/09/23 10:51:26;;;;;;;23.50;4.77;;;;;;;;;;6214027;23;20438;-90
2022/09/23 10:54:04;;;;;;;9.77;3.30;;;;;;;;;;6217418;23;20426;-90
2022/09/23 10:56:38;;;;;;;8.57;2.37;;;;;;;;;;6191667;23;20423;-91
2022/09/23 10:59:10;;;;;;;15.43;3.63;;;;;;;;;;6191252;23;20430;-90
2022/09/23 11:01:38;;;;;;;9.00;3.00;;;;;;;;;;6215895;23;20412;-91
2022/09/23 11:04:34;;;;;;;14.47;3.90;;;;;;;;;;6216657;23;20388;-90
2022/09/23 11:07:07;;;;;;;10.47;3.17;;;;;;;;;;6194534;23;20432;-92
2022/09/23 11:09:53;;;;;;;10.70;3.20;;;;;;;;;;6215930;23;20407;-92
2022/09/23 11:12:32;;;;;;;8.30;2.87;;;;;;;;;;6216307;23;20419;-90
2022/09/23 11:15:06;;;;;;;21.63;3.67;;;;;;;;;;6217485;23;20458;-90
2022/09/23 11:17:36;;;;;;;11.93;3.30;;;;;;;;;;6216822;23;20363;-91
2022/09/23 11:20:22;;;;;;;11.03;3.33;;;;;;;;;;6217629;23;20467;-90
2022/09/23 11:23:12;;;;;;;15.20;2.70;;;;;;;;;;6216167;23;20384;-91
2022/09/23 11:26:00;;;;;;;5.27;2.43;;;;;;;;;;6216272;23;20391;-91
2022/09/23 11:28:28;;;;;;;6.23;2.23;;;;;;;;;;6217299;23;20407;-90
2022/09/23 11:31:20;;;;;;;8.37;2.50;;;;;;;;;;6216043;23;20833;-90
2022/09/23 11:34:08;;;;;;;14.90;3.10;;;;;;;;;;6191412;23;20380;-90
2022/09/23 11:36:40;;;;;;;8.73;2.23;;;;;;;;;;6216015;23;20732;-91
2022/09/23 11:39:27;;;;;;;9.97;2.93;;;;;;;;;;6216294;23;20388;-91
2022/09/23 11:41:56;;;;;;;11.10;2.50;;;;;;;;;;6191205;23;20495;-92
2022/09/23 11:44:27;;;;;;;7.63;2.10;;;;;;;;;;6190969;23;20481;-90
2022/09/23 11:46:56;;;;;;;11.07;2.70;;;;;;;;;;6191404;23;20422;-91
2022/09/23 11:49:31;;;;;;;11.40;3.10;;;;;;;;;;6191015;23;20454;-91
2022/09/23 11:52:04;;;;;;;7.67;2.20;;;;;;;;;;6216166;23;20453;-91
2022/09/23 11:54:37;;;;;;;9.20;2.53;;;;;;;;;;6215912;23;20380;-90
2022/09/23 11:57:05;;;;;;;9.20;2.77;;;;;;;;;;6216586;23;20408;-90
2022/09/23 11:59:36;;;;;;;10.77;2.70;;;;;;;;;;6215826;23;20887;-90
2022/09/23 12:02:15;;;;;;;17.40;3.10;;;;;;;;;;6217210;23;20423;-91
2022/09/23 12:04:56;;;;;;;5.70;2.50;;;;;;;;;;6191922;23;20788;-91
2022/09/23 12:07:38;;;;;;;8.37;2.20;;;;;;;;;;6215849;23;20380;-90
2022/09/23 12:10:06;;;;;;;13.30;2.93;;;;;;;;;;6216797;23;20400;-91
2022/09/23 12:12:53;;;;;;;5.30;2.37;;;;;;;;;;6190734;23;20407;-91
2022/09/23 12:15:27;;;;;;;11.23;2.50;;;;;;;;;;6217086;23;20380;-91
2022/09/23 12:18:18;;;;;;;8.13;2.27;;;;;;;;;;6216102;23;20776;-90
2022/09/23 12:20:56;;;;;;;12.10;2.93;;;;;;;;;;6131407;23;20492;-91
2022/09/23 12:23:31;;;;;;;7.53;2.60;;;;;;;;;;6106740;23;20532;-92
2022/09/23 12:26:02;;;;;;;6.90;2.70;;;;;;;;;;6130020;23;20464;-91
2022/09/23 12:28:30;;;;;;;7.93;2.40;;;;;;;;;;6106190;23;20436;-90
2022/09/23 12:30:58;;;;;;;6.87;2.10;;;;;;;;;;6155015;23;20847;-92
2022/09/23 12:33:29;;;;;;;13.20;2.77;;;;;;;;;;6106609;23;20386;-92
2022/09/23 12:36:07;;;;;;;14.40;3.00;;;;;;;;;;6106239;23;20468;-92
2022/09/23 12:38:35;;;;;;;17.97;2.80;;;;;;;;;;6130518;23;20919;-91
2022/09/23 12:41:17;;;;;;;13.20;3.50;;;;;;;;;;6154813;23;20382;-92
2022/09/23 12:43:54;;;;;;;14.00;3.40;;;;;;;;;;6106019;23;20784;-90
2022/09/23 12:46:26;;;;;;;9.83;2.70;;;;;;;;;;6130950;23;20412;-91
2022/09/23 12:48:57;;;;;;;7.63;3.03;;;;;;;;;;6130396;23;20413;-92
2022/09/23 12:51:35;;;;;;;14.30;2.70;;;;;;;;;;6154786;23;20441;-91
2022/09/23 12:54:02;;;;;;;6.60;3.00;;;;;;;;;;6130437;23;20394;-91
2022/09/23 12:56:32;;;;;;;8.40;2.73;;;;;;;;;;6154476;23;20385;-90
2022/09/23 12:59:17;;;;;;;8.90;2.93;;;;;;;;;;6215361;23;20402;-90
2022/09/23 13:01:45;;;;;;;8.53;2.53;;;;;;;;;;6216720;23;20406;-91
2022/09/23 13:07:15;;;;;;;7.93;2.57;;;;;;;;;;6215209;23;20414;-91
2022/09/23 13:09:48;;;;;;;8.30;2.70;;;;;;;;;;6215108;23;20407;-90
2022/09/23 13:12:20;;;;;;;8.83;3.37;;;;;;;;;;6216426;23;20439;-92
2022/09/23 13:14:48;;;;;;;10.90;3.20;;;;;;;;;;6214685;23;20414;-91
2022/09/23 13:17:41;;;;;;;10.00;3.10;;;;;;;;;;6190394;23;20407;-92
2022/09/23 13:20:27;;;;;;;11.83;3.17;;;;;;;;;;6213788;23;20407;-90
2022/09/23 13:22:57;;;;;;;7.27;2.83;;;;;;;;;;6216484;23;20894;-92
2022/09/23 13:25:27;;;;;;;12.80;3.20;;;;;;;;;;6214671;23;20435;-89
2022/09/23 13:27:55;;;;;;;16.47;3.27;;;;;;;;;;6218917;23;20440;-91
2022/09/23 13:30:24;;;;;;;8.30;2.90;;;;;;;;;;6190863;23;20735;-92
2022/09/23 13:32:55;;;;;;;10.23;2.50;;;;;;;;;;6191987;23;20384;-92
2022/09/23 13:35:29;;;;;;;11.73;3.00;;;;;;;;;;6215788;23;20387;-92
2022/09/23 13:38:31;;;;;;;13.63;3.20;;;;;;;;;;6215188;23;20384;-91
2022/09/23 13:41:02;;;;;;;16.70;3.83;;;;;;;;;;6167360;23;20445;-91
2022/09/23 13:43:39;;;;;;;12.60;3.27;;;;;;;;;;6215685;23;20403;-90
2022/09/23 13:46:16;;;;;;;8.10;2.60;;;;;;;;;;6190157;23;20401;-91
2022/09/23 13:48:45;;;;;;;14.50;3.80;;;;;;;;;;6214852;23;20442;-91
2022/09/23 13:51:39;;;;;;;8.27;3.00;;;;;;;;;;6214274;23;20446;-92
2022/09/23 13:54:24;;;;;;;8.03;3.10;;;;;;;;;;6211130;23;20406;-90
2022/09/23 13:56:51;;;;;;;8.47;3.07;;;;;;;;;;6190101;23;20411;-90
2022/09/23 13:59:25;;;;;;;7.27;3.00;;;;;;;;;;6189977;23;20414;-91
2022/09/23 14:02:04;;;;;;;8.93;2.83;;;;;;;;;;6214966;23;20383;-91
2022/09/23 14:04:32;;;;;;;8.93;3.03;;;;;;;;;;6189912;23;20453;-91
2022/09/23 14:07:02;;;;;;;6.10;2.93;;;;;;;;;;6214094;23;20410;-91
2022/09/23 14:09:30;;;;;;;14.20;3.40;;;;;;;;;;6190304;23;20384;-92
2022/09/23 14:11:58;;;;;;;9.20;3.00;;;;;;;;;;6214736;23;20439;-91
2022/09/23 14:14:25;;;;;;;10.10;3.10;;;;;;;;;;6189643;23;20443;-91
2022/09/23 14:16:54;;;;;;;8.80;3.20;;;;;;;;;;6216055;23;20414;-91
2022/09/23 14:19:22;;;;;;;9.27;3.03;;;;;;;;;;6215159;23;20718;-90
2022/09/23 14:21:50;;;;;;;9.57;2.90;;;;;;;;;;6190022;23;20383;-91
2022/09/23 14:24:31;;;;;;;7.97;2.90;;;;;;;;;;6190180;23;20408;-92
2022/09/23 14:26:58;;;;;;;10.60;3.20;;;;;;;;;;6214393;23;20387;-91
2022/09/23 14:29:43;;;;;;;8.43;2.93;;;;;;;;;;6217550;23;20422;-90
2022/09/23 14:32:17;;;;;;;11.53;2.77;;;;;;;;;;6217858;23;20451;-91
2022/09/23 14:34:46;;;;;;;11.73;3.60;;;;;;;;;;6192902;23;20384;-90
2022/09/23 14:40:15;;;;;;;12.07;4.27;;;;;;;;;;6216827;23;20407;-90
2022/09/23 14:43:03;;;;;;;9.97;3.07;;;;;;;;;;6215973;23;20407;-91
2022/09/23 14:45:31;;;;;;;10.03;3.13;;;;;;;;;;6216263;23;20930;-91
2022/09/23 14:48:00;;;;;;;8.07;3.80;;;;;;;;;;6216824;23;20400;-92
2022/09/23 14:50:47;;;;;;;16.13;3.30;;;;;;;;;;6216749;23;20422;-91
2022/09/23 14:53:18;;;;;;;10.97;3.53;;;;;;;;;;6196002;23;20388;-91
2022/09/23 14:55:45;;;;;;;8.83;2.67;;;;;;;;;;6216220;23;20404;-92
2022/09/23 14:58:16;;;;;;;10.60;3.20;;;;;;;;;;6191738;23;20406;-90
2022/09/23 15:00:56;;;;;;;9.73;3.40;;;;;;;;;;6217692;23;20748;-90
2022/09/23 15:03:27;;;;;;;9.07;3.53;;;;;;;;;;6191097;23;20403;-92
2022/09/23 15:05:56;;;;;;;8.73;3.03;;;;;;;;;;6192988;23;20388;-92
2022/09/23 15:08:26;;;;;;;11.63;3.50;;;;;;;;;;6191893;23;20401;-91
2022/09/23 15:10:53;;;;;;;8.60;3.20;;;;;;;;;;6192447;23;20422;-91
2022/09/23 15:13:27;;;;;;;21.57;3.50;;;;;;;;;;6216827;23;20388;-91
2022/09/23 15:15:55;;;;;;;7.47;3.00;;;;;;;;;;6191668;23;20404;-91
2022/09/23 15:18:30;;;;;;;10.07;3.47;;;;;;;;;;6191594;23;20451;-92
2022/09/23 15:21:15;;;;;;;9.40;3.63;;;;;;;;;;6192356;23;20918;-91
2022/09/23 15:23:43;;;;;;;10.90;3.40;;;;;;;;;;6191246;23;20384;-91
2022/09/23 15:26:12;;;;;;;13.00;3.63;;;;;;;;;;6217220;23;20408;-92
2022/09/23 15:28:41;;;;;;;11.43;3.50;;;;;;;;;;6191323;23;20397;-92
2022/09/23 15:31:13;;;;;;;11.47;3.43;;;;;;;;;;6191439;23;20432;-91
2022/09/23 15:33:46;;;;;;;10.70;3.87;;;;;;;;;;6191312;23;20486;-92
2022/09/23 15:36:19;;;;;;;9.03;3.30;;;;;;;;;;6191896;23;20797;-93
2022/09/23 15:38:48;;;;;;;10.90;3.97;;;;;;;;;;6191915;23;20878;-93
2022/09/23 15:41:17;;;;;;;12.23;3.40;;;;;;;;;;6191388;23;20458;-92
2022/09/23 15:43:45;;;;;;;8.87;3.20;;;;;;;;;;6191218;23;20415;-92
2022/09/23 15:46:18;;;;;;;9.50;4.07;;;;;;;;;;6191458;23;20411;-92
2022/09/23 15:49:01;;;;;;;11.83;4.13;;;;;;;;;;6217001;23;20394;-92
2022/09/23 15:51:30;;;;;;;7.03;2.90;;;;;;;;;;6190744;23;20455;-93
2022/09/23 15:53:57;;;;;;;8.60;3.43;;;;;;;;;;6191464;23;20771;-91
2022/09/23 15:56:27;;;;;;;10.40;3.30;;;;;;;;;;6190758;23;20396;-92
2022/09/23 15:58:55;;;;;;;12.80;3.60;;;;;;;;;;6191829;23;20388;-91
2022/09/23 16:01:28;;;;;;;10.30;3.50;;;;;;;;;;6191835;23;20874;-91
2022/09/23 16:03:56;;;;;;;9.17;3.40;;;;;;;;;;6190728;23;20412;-91
2022/09/23 16:06:30;;;;;;;6.30;2.90;;;;;;;;;;6191118;23;20925;-92
2022/09/23 16:08:57;;;;;;;11.30;2.87;;;;;;;;;;6190684;23;20415;-91
2022/09/23 16:11:45;;;;;;;6.03;2.57;;;;;;;;;;6190802;23;20458;-92
2022/09/23 16:14:13;;;;;;;9.03;3.00;;;;;;;;;;6214073;23;20890;-91
2022/09/23 16:16:46;;;;;;;6.47;2.97;;;;;;;;;;6191590;23;20380;-91
2022/09/23 16:19:16;;;;;;;9.20;2.87;;;;;;;;;;6192003;23;20388;-93
2022/09/23 16:21:52;;;;;;;8.73;2.47;;;;;;;;;;6191133;23;20458;-92
2022/09/23 16:24:21;;;;;;;6.37;2.37;;;;;;;;;;6191629;23;20715;-91
2022/09/23 16:26:58;;;;;;;12.90;3.20;;;;;;;;;;6191391;23;20744;-92
2022/09/23 16:29:26;;;;;;;11.90;2.60;;;;;;;;;;6191608;23;20414;-91
2022/09/23 16:31:54;;;;;;;9.60;3.40;;;;;;;;;;6191087;23;20485;-92
2022/09/23 16:34:21;;;;;;;7.93;2.63;;;;;;;;;;6191917;23;20875;-92
2022/09/23 16:36:49;;;;;;;8.10;3.00;;;;;;;;;;6191485;23;20395;-92
2022/09/23 16:39:18;;;;;;;7.10;2.30;;;;;;;;;;6191521;23;20392;-92
2022/09/23 16:41:54;;;;;;;6.80;2.60;;;;;;;;;;6191240;23;20423;-90